sensor_id;sensor_type;location;lat;lon;timestamp;pressure;altitude;pressure_sealevel;temperature;humidity
42691;BME280;28306;55.744;37.578;2023-05-02T00:00:06;100323.25;;;21.69;26.09
42691;BME280;28306;55.744;37.578;2023-05-02T00:02:32;100325.13;;;21.68;26.16
42691;BME280;28306;55.744;37.578;2023-05-02T00:04:57;100324.91;;;21.70;26.11
42691;BME280;28306;55.744;37.578;2023-05-02T00:07:23;100323.00;;;21.70;26.11
42691;BME280;28306;55.744;37.578;2023-05-02T00:09:49;100330.31;;;21.70;26.28
42691;BME280;28306;55.744;37.578;2023-05-02T00:12:14;100324.91;;;21.70;26.14
42691;BME280;28306;55.744;37.578;2023-05-02T00:14:40;100337.63;;;21.69;26.10
42691;BME280;28306;55.744;37.578;2023-05-02T00:17:05;100337.63;;;21.69;26.30
42691;BME280;28306;55.744;37.578;2023-05-02T00:19:30;100346.78;;;21.68;26.05
42691;BME280;28306;55.744;37.578;2023-05-02T00:21:56;100339.72;;;21.67;26.12
42691;BME280;28306;55.744;37.578;2023-05-02T00:24:21;100353.25;;;21.67;26.27
42691;BME280;28306;55.744;37.578;2023-05-02T00:26:47;100349.72;;;21.67;26.19
42691;BME280;28306;55.744;37.578;2023-05-02T00:29:12;100354.31;;;21.66;26.09
42691;BME280;28306;55.744;37.578;2023-05-02T00:31:39;100358.06;;;21.65;26.06
42691;BME280;28306;55.744;37.578;2023-05-02T00:34:05;100357.25;;;21.65;26.03
42691;BME280;28306;55.744;37.578;2023-05-02T00:36:30;100363.50;;;21.65;26.25
42691;BME280;28306;55.744;37.578;2023-05-02T00:38:56;100359.13;;;21.64;25.96
42691;BME280;28306;55.744;37.578;2023-05-02T00:41:21;100364.53;;;21.64;26.23
42691;BME280;28306;55.744;37.578;2023-05-02T00:43:47;100372.66;;;21.64;26.23
42691;BME280;28306;55.744;37.578;2023-05-02T00:46:13;100369.13;;;21.64;26.16
42691;BME280;28306;55.744;37.578;2023-05-02T00:48:39;100372.88;;;21.63;26.28
42691;BME280;28306;55.744;37.578;2023-05-02T00:51:05;100377.47;;;21.62;26.26
42691;BME280;28306;55.744;37.578;2023-05-02T00:53:32;100383.94;;;21.61;26.19
42691;BME280;28306;55.744;37.578;2023-05-02T00:55:58;100386.66;;;21.61;26.20
42691;BME280;28306;55.744;37.578;2023-05-02T00:58:23;100381.00;;;21.63;26.34
42691;BME280;28306;55.744;37.578;2023-05-02T01:01:10;100375.81;;;21.61;26.10
42691;BME280;28306;55.744;37.578;2023-05-02T01:03:42;100385.84;;;21.60;26.20
42691;BME280;28306;55.744;37.578;2023-05-02T01:13:36;100401.25;;;21.60;26.28
42691;BME280;28306;55.744;37.578;2023-05-02T01:16:03;100401.47;;;21.58;26.30
42691;BME280;28306;55.744;37.578;2023-05-02T01:18:31;100407.13;;;21.57;26.16
42691;BME280;28306;55.744;37.578;2023-05-02T01:20:59;100409.84;;;21.57;26.12
42691;BME280;28306;55.744;37.578;2023-05-02T01:26:14;100416.28;;;21.56;26.13
42691;BME280;28306;55.744;37.578;2023-05-02T01:28:50;100412.75;;;21.55;26.07
42691;BME280;28306;55.744;37.578;2023-05-02T01:31:19;100414.63;;;21.55;26.10
42691;BME280;28306;55.744;37.578;2023-05-02T01:33:47;100420.03;;;21.55;26.10
42691;BME280;28306;55.744;37.578;2023-05-02T01:36:13;100418.19;;;21.55;26.05
42691;BME280;28306;55.744;37.578;2023-05-02T01:38:41;100430.88;;;21.55;26.19
42691;BME280;28306;55.744;37.578;2023-05-02T01:41:08;100434.66;;;21.54;26.16
42691;BME280;28306;55.744;37.578;2023-05-02T01:43:34;100434.66;;;21.54;26.14
42691;BME280;28306;55.744;37.578;2023-05-02T01:46:02;100440.06;;;21.54;26.35
42691;BME280;28306;55.744;37.578;2023-05-02T01:48:29;100441.09;;;21.53;26.15
42691;BME280;28306;55.744;37.578;2023-05-02T01:50:56;100441.09;;;21.53;26.13
42691;BME280;28306;55.744;37.578;2023-05-02T01:53:24;100445.47;;;21.54;26.10
42691;BME280;28306;55.744;37.578;2023-05-02T01:55:49;100451.94;;;21.53;26.17
42691;BME280;28306;55.744;37.578;2023-05-02T01:58:17;100452.75;;;21.53;26.18
42691;BME280;28306;55.744;37.578;2023-05-02T02:00:43;100453.81;;;21.52;26.29
42691;BME280;28306;55.744;37.578;2023-05-02T02:03:09;100453.81;;;21.52;26.06
42691;BME280;28306;55.744;37.578;2023-05-02T02:05:36;100458.38;;;21.52;26.05
42691;BME280;28306;55.744;37.578;2023-05-02T02:08:03;100462.75;;;21.53;26.11
42691;BME280;28306;55.744;37.578;2023-05-02T02:10:30;100463.81;;;21.52;26.04
42691;BME280;28306;55.744;37.578;2023-05-02T02:13:00;100470.88;;;21.53;26.02
42691;BME280;28306;55.744;37.578;2023-05-02T02:15:29;100469.22;;;21.52;26.18
42691;BME280;28306;55.744;37.578;2023-05-02T02:17:59;100477.34;;;21.52;26.17
42691;BME280;28306;55.744;37.578;2023-05-02T02:20:28;100488.19;;;21.52;26.10
42691;BME280;28306;55.744;37.578;2023-05-02T02:22:53;100483.59;;;21.52;26.09
42691;BME280;28306;55.744;37.578;2023-05-02T02:25:20;100491.72;;;21.52;25.96
42691;BME280;28306;55.744;37.578;2023-05-02T02:27:46;100496.28;;;21.52;26.04
42691;BME280;28306;55.744;37.578;2023-05-02T02:30:12;100495.47;;;21.51;26.23
42691;BME280;28306;55.744;37.578;2023-05-02T02:32:37;100499.00;;;21.52;25.94
42691;BME280;28306;55.744;37.578;2023-05-02T02:35:03;100502.78;;;21.44;26.37
42691;BME280;28306;55.744;37.578;2023-05-02T02:37:34;100505.13;;;21.40;26.25
42691;BME280;28306;55.744;37.578;2023-05-02T02:42:38;100509.72;;;21.40;26.20
42691;BME280;28306;55.744;37.578;2023-05-02T02:45:25;100515.13;;;21.40;26.36
42691;BME280;28306;55.744;37.578;2023-05-02T02:50:42;100517.84;;;21.40;26.11
42691;BME280;28306;55.744;37.578;2023-05-02T02:53:15;100509.72;;;21.40;26.13
42691;BME280;28306;55.744;37.578;2023-05-02T03:00:51;100521.97;;;21.42;26.22
42691;BME280;28306;55.744;37.578;2023-05-02T03:03:17;100519.25;;;21.42;26.05
42691;BME280;28306;55.744;37.578;2023-05-02T03:05:44;100526.34;;;21.43;26.13
42691;BME280;28306;55.744;37.578;2023-05-02T03:08:10;100521.72;;;21.44;26.05
42691;BME280;28306;55.744;37.578;2023-05-02T03:10:38;100532.34;;;21.46;26.27
42691;BME280;28306;55.744;37.578;2023-05-02T03:13:04;100524.22;;;21.46;26.11
42691;BME280;28306;55.744;37.578;2023-05-02T03:17:55;100527.78;;;21.46;25.98
42691;BME280;28306;55.744;37.578;2023-05-02T03:20:20;100530.28;;;21.48;25.90
42691;BME280;28306;55.744;37.578;2023-05-02T03:22:46;100529.22;;;21.49;26.09
42691;BME280;28306;55.744;37.578;2023-05-02T03:25:12;100534.41;;;21.50;25.90
42691;BME280;28306;55.744;37.578;2023-05-02T03:27:41;100536.09;;;21.51;26.13
42691;BME280;28306;55.744;37.578;2023-05-02T03:30:09;100548.81;;;21.51;26.08
42691;BME280;28306;55.744;37.578;2023-05-02T03:32:35;100549.41;;;21.53;26.04
42691;BME280;28306;55.744;37.578;2023-05-02T03:35:01;100552.13;;;21.53;25.89
42691;BME280;28306;55.744;37.578;2023-05-02T03:37:33;100552.94;;;21.53;26.13
42691;BME280;28306;55.744;37.578;2023-05-02T03:39:58;100557.53;;;21.53;26.11
42691;BME280;28306;55.744;37.578;2023-05-02T03:42:24;100561.91;;;21.54;26.17
42691;BME280;28306;55.744;37.578;2023-05-02T03:44:52;100559.81;;;21.56;26.06
42691;BME280;28306;55.744;37.578;2023-05-02T03:47:18;100567.91;;;21.56;26.07
42691;BME280;28306;55.744;37.578;2023-05-02T03:49:44;100566.66;;;21.58;26.04
42691;BME280;28306;55.744;37.578;2023-05-02T03:52:12;100570.41;;;21.57;26.05
42691;BME280;28306;55.744;37.578;2023-05-02T03:54:38;100569.59;;;21.57;25.91
42691;BME280;28306;55.744;37.578;2023-05-02T03:57:03;100570.41;;;21.57;25.86
42691;BME280;28306;55.744;37.578;2023-05-02T03:59:33;100569.16;;;21.60;26.09
42691;BME280;28306;55.744;37.578;2023-05-02T04:02:03;100574.34;;;21.62;26.05
42691;BME280;28306;55.744;37.578;2023-05-02T04:04:38;100577.88;;;21.62;25.90
42691;BME280;28306;55.744;37.578;2023-05-02T04:07:06;100576.84;;;21.63;25.82
42691;BME280;28306;55.744;37.578;2023-05-02T04:09:33;100580.97;;;21.66;25.80
42691;BME280;28306;55.744;37.578;2023-05-02T04:12:05;100581.81;;;21.66;25.87
42691;BME280;28306;55.744;37.578;2023-05-02T04:14:32;100585.34;;;21.67;25.95
42691;BME280;28306;55.744;37.578;2023-05-02T04:16:58;100585.13;;;21.68;26.02
42691;BME280;28306;55.744;37.578;2023-05-02T04:19:37;100594.06;;;21.69;25.80
42691;BME280;28306;55.744;37.578;2023-05-02T04:22:03;100595.72;;;21.70;26.08
42691;BME280;28306;55.744;37.578;2023-05-02T04:24:33;100596.56;;;21.70;25.82
42691;BME280;28306;55.744;37.578;2023-05-02T04:26:58;100594.69;;;21.71;25.92
42691;BME280;28306;55.744;37.578;2023-05-02T04:29:24;100600.09;;;21.71;25.80
42691;BME280;28306;55.744;37.578;2023-05-02T04:31:51;100601.16;;;21.70;25.87
42691;BME280;28306;55.744;37.578;2023-05-02T04:34:16;100601.97;;;21.70;25.94
42691;BME280;28306;55.744;37.578;2023-05-02T04:36:44;100602.81;;;21.71;26.04
42691;BME280;28306;55.744;37.578;2023-05-02T04:39:12;100602.81;;;21.71;25.82
42691;BME280;28306;55.744;37.578;2023-05-02T04:41:43;100604.47;;;21.72;25.99
42691;BME280;28306;55.744;37.578;2023-05-02T04:44:09;100610.72;;;21.72;25.87
42691;BME280;28306;55.744;37.578;2023-05-02T04:46:36;100606.94;;;21.73;25.88
42691;BME280;28306;55.744;37.578;2023-05-02T04:49:01;100612.13;;;21.75;25.72
42691;BME280;28306;55.744;37.578;2023-05-02T04:51:28;100612.13;;;21.75;26.05
42691;BME280;28306;55.744;37.578;2023-05-02T04:53:56;100618.38;;;21.75;25.86
42691;BME280;28306;55.744;37.578;2023-05-02T04:56:21;100628.19;;;21.76;25.74
42691;BME280;28306;55.744;37.578;2023-05-02T04:58:47;100618.16;;;21.77;25.72
42691;BME280;28306;55.744;37.578;2023-05-02T05:01:13;100617.34;;;21.76;25.70
42691;BME280;28306;55.744;37.578;2023-05-02T05:03:39;100623.56;;;21.77;25.77
42691;BME280;28306;55.744;37.578;2023-05-02T05:06:06;100617.13;;;21.78;25.92
42691;BME280;28306;55.744;37.578;2023-05-02T05:08:32;100622.53;;;21.78;25.94
42691;BME280;28306;55.744;37.578;2023-05-02T05:10:58;100620.66;;;21.78;25.81
42691;BME280;28306;55.744;37.578;2023-05-02T05:13:24;100625.84;;;21.80;25.84
42691;BME280;28306;55.744;37.578;2023-05-02T05:15:50;100623.97;;;21.81;25.85
42691;BME280;28306;55.744;37.578;2023-05-02T05:18:18;100625.63;;;21.82;25.89
42691;BME280;28306;55.744;37.578;2023-05-02T05:20:43;100629.41;;;21.81;25.70
42691;BME280;28306;55.744;37.578;2023-05-02T05:23:10;100623.75;;;21.82;25.71
42691;BME280;28306;55.744;37.578;2023-05-02T05:25:35;100627.28;;;21.83;25.68
42691;BME280;28306;55.744;37.578;2023-05-02T05:28:01;100630.81;;;21.83;25.81
42691;BME280;28306;55.744;37.578;2023-05-02T05:30:28;100635.41;;;21.83;25.78
42691;BME280;28306;55.744;37.578;2023-05-02T05:32:56;100630.00;;;21.83;25.67
42691;BME280;28306;55.744;37.578;2023-05-02T05:35:24;100624.38;;;21.84;25.55
42691;BME280;28306;55.744;37.578;2023-05-02T05:37:51;100643.31;;;21.84;25.54
42691;BME280;28306;55.744;37.578;2023-05-02T05:40:17;100627.06;;;21.84;25.70
42691;BME280;28306;55.744;37.578;2023-05-02T05:42:48;100636.03;;;21.85;25.78
42691;BME280;28306;55.744;37.578;2023-05-02T05:45:21;100628.75;;;21.85;25.89
42691;BME280;28306;55.744;37.578;2023-05-02T05:47:47;100630.59;;;21.85;25.76
42691;BME280;28306;55.744;37.578;2023-05-02T05:50:12;100628.75;;;21.85;25.78
42691;BME280;28306;55.744;37.578;2023-05-02T05:52:39;100632.28;;;21.86;25.70
42691;BME280;28306;55.744;37.578;2023-05-02T05:55:05;100633.94;;;21.87;25.59
42691;BME280;28306;55.744;37.578;2023-05-02T05:57:31;100631.22;;;21.87;25.71
42691;BME280;28306;55.744;37.578;2023-05-02T05:59:57;100630.16;;;21.88;25.59
42691;BME280;28306;55.744;37.578;2023-05-02T06:02:23;100636.66;;;21.87;25.82
42691;BME280;28306;55.744;37.578;2023-05-02T06:04:49;100634.75;;;21.87;25.53
42691;BME280;28306;55.744;37.578;2023-05-02T06:07:17;100633.94;;;21.87;25.59
42691;BME280;28306;55.744;37.578;2023-05-02T06:09:43;100634.75;;;21.87;25.80
42691;BME280;28306;55.744;37.578;2023-05-02T06:12:10;100632.03;;;21.87;25.82
42691;BME280;28306;55.744;37.578;2023-05-02T06:14:36;100630.16;;;21.88;25.58
42691;BME280;28306;55.744;37.578;2023-05-02T06:17:01;100629.34;;;21.87;25.85
42691;BME280;28306;55.744;37.578;2023-05-02T06:19:27;100633.72;;;21.88;25.89
42691;BME280;28306;55.744;37.578;2023-05-02T06:21:52;100629.13;;;21.89;25.73
42691;BME280;28306;55.744;37.578;2023-05-02T06:24:18;100631.59;;;21.90;25.71
42691;BME280;28306;55.744;37.578;2023-05-02T06:26:43;100635.34;;;21.89;25.84
42691;BME280;28306;55.744;37.578;2023-05-02T06:29:09;100634.53;;;21.89;25.58
42691;BME280;28306;55.744;37.578;2023-05-02T06:31:34;100632.66;;;21.89;25.76
42691;BME280;28306;55.744;37.578;2023-05-02T06:34:00;100635.34;;;21.89;25.68
42691;BME280;28306;55.744;37.578;2023-05-02T06:36:25;100637.03;;;21.90;25.59
42691;BME280;28306;55.744;37.578;2023-05-02T06:38:51;100636.22;;;21.90;25.70
42691;BME280;28306;55.744;37.578;2023-05-02T06:41:17;100632.66;;;21.89;25.52
42691;BME280;28306;55.744;37.578;2023-05-02T06:43:43;100639.97;;;21.89;25.49
42691;BME280;28306;55.744;37.578;2023-05-02T06:46:08;100635.34;;;21.89;25.56
42691;BME280;28306;55.744;37.578;2023-05-02T06:48:37;100636.22;;;21.90;25.61
42691;BME280;28306;55.744;37.578;2023-05-02T06:51:02;100634.53;;;21.89;25.55
42691;BME280;28306;55.744;37.578;2023-05-02T06:53:29;100634.53;;;21.89;25.49
42691;BME280;28306;55.744;37.578;2023-05-02T06:55:54;100635.34;;;21.89;25.69
42691;BME280;28306;55.744;37.578;2023-05-02T06:58:20;100639.97;;;21.89;25.55
42691;BME280;28306;55.744;37.578;2023-05-02T07:00:45;100643.47;;;21.89;25.55
42691;BME280;28306;55.744;37.578;2023-05-02T07:03:12;100638.06;;;21.89;25.56
42691;BME280;28306;55.744;37.578;2023-05-02T07:05:38;100643.47;;;21.89;25.44
42691;BME280;28306;55.744;37.578;2023-05-02T07:08:03;100642.66;;;21.89;25.67
42691;BME280;28306;55.744;37.578;2023-05-02T07:10:29;100647.03;;;21.90;25.67
42691;BME280;28306;55.744;37.578;2023-05-02T07:12:54;100639.13;;;21.88;25.47
42691;BME280;28306;55.744;37.578;2023-05-02T07:15:20;100640.78;;;21.89;25.61
42691;BME280;28306;55.744;37.578;2023-05-02T07:17:45;100643.47;;;21.89;25.41
42691;BME280;28306;55.744;37.578;2023-05-02T07:20:11;100644.34;;;21.90;25.62
42691;BME280;28306;55.744;37.578;2023-05-02T07:22:37;100641.63;;;21.90;25.55
42691;BME280;28306;55.744;37.578;2023-05-02T07:25:02;100646.59;;;21.93;25.54
42691;BME280;28306;55.744;37.578;2023-05-02T07:27:28;100646.38;;;21.94;25.47
42691;BME280;28306;55.744;37.578;2023-05-02T07:29:54;100647.19;;;21.95;25.30
42691;BME280;28306;55.744;37.578;2023-05-02T07:32:19;100644.72;;;21.93;25.57
42691;BME280;28306;55.744;37.578;2023-05-02T07:34:46;100649.31;;;21.93;25.57
42691;BME280;28306;55.744;37.578;2023-05-02T07:37:12;100639.50;;;21.92;25.51
42691;BME280;28306;55.744;37.578;2023-05-02T07:39:37;100645.75;;;21.92;25.61
42691;BME280;28306;55.744;37.578;2023-05-02T07:42:03;100643.03;;;21.92;25.30
42691;BME280;28306;55.744;37.578;2023-05-02T07:44:28;100640.34;;;21.92;25.65
42691;BME280;28306;55.744;37.578;2023-05-02T07:46:54;100643.91;;;21.93;25.53
42691;BME280;28306;55.744;37.578;2023-05-02T07:49:19;100638.47;;;21.93;25.36
42691;BME280;28306;55.744;37.578;2023-05-02T07:51:45;100639.28;;;21.93;25.49
42691;BME280;28306;55.744;37.578;2023-05-02T07:54:14;100641.78;;;21.95;25.38
42691;BME280;28306;55.744;37.578;2023-05-02T07:56:40;100634.47;;;21.95;25.35
42691;BME280;28306;55.744;37.578;2023-05-02T07:59:06;100634.25;;;21.97;25.35
42691;BME280;28306;55.744;37.578;2023-05-02T08:01:31;100639.44;;;21.99;25.30
42691;BME280;28306;55.744;37.578;2023-05-02T08:03:57;100633.00;;;22.00;25.48
42691;BME280;28306;55.744;37.578;2023-05-02T08:06:22;100630.06;;;22.01;25.34
42691;BME280;28306;55.744;37.578;2023-05-02T08:08:48;100639.84;;;22.02;25.23
42691;BME280;28306;55.744;37.578;2023-05-02T08:11:13;100630.06;;;22.01;25.52
42691;BME280;28306;55.744;37.578;2023-05-02T08:13:39;100630.06;;;22.01;25.26
42691;BME280;28306;55.744;37.578;2023-05-02T08:16:04;100631.09;;;22.00;25.38
42691;BME280;28306;55.744;37.578;2023-05-02T08:18:30;100628.38;;;22.00;25.29
42691;BME280;28306;55.744;37.578;2023-05-02T08:20:56;100633.00;;;22.00;25.56
42691;BME280;28306;55.744;37.578;2023-05-02T08:23:22;100633.81;;;22.00;25.24
42691;BME280;28306;55.744;37.578;2023-05-02T08:25:48;100631.09;;;22.00;25.43
42691;BME280;28306;55.744;37.578;2023-05-02T08:28:13;100628.16;;;22.02;25.30
42691;BME280;28306;55.744;37.578;2023-05-02T08:30:39;100624.63;;;22.01;25.55
42691;BME280;28306;55.744;37.578;2023-05-02T08:33:04;100623.59;;;22.02;25.52
42691;BME280;28306;55.744;37.578;2023-05-02T08:35:30;100613.81;;;22.01;25.50
42691;BME280;28306;55.744;37.578;2023-05-02T08:37:55;100630.06;;;22.01;25.38
42691;BME280;28306;55.744;37.578;2023-05-02T08:40:21;100626.31;;;22.02;25.41
42691;BME280;28306;55.744;37.578;2023-05-02T08:42:47;100617.31;;;22.02;25.29
42691;BME280;28306;55.744;37.578;2023-05-02T08:45:13;100627.34;;;22.01;25.44
42691;BME280;28306;55.744;37.578;2023-05-02T08:47:40;100624.63;;;22.01;25.55
42691;BME280;28306;55.744;37.578;2023-05-02T08:50:05;100615.47;;;22.02;25.38
42691;BME280;28306;55.744;37.578;2023-05-02T08:52:31;100615.69;;;22.01;25.47
42691;BME280;28306;55.744;37.578;2023-05-02T08:54:58;100615.69;;;22.01;25.38
42691;BME280;28306;55.744;37.578;2023-05-02T08:57:27;100620.03;;;22.02;25.41
42691;BME280;28306;55.744;37.578;2023-05-02T08:59:53;100620.03;;;22.02;25.62
42691;BME280;28306;55.744;37.578;2023-05-02T09:04:47;100612.13;;;22.00;25.36
42691;BME280;28306;55.744;37.578;2023-05-02T09:07:15;100613.81;;;22.01;25.59
42691;BME280;28306;55.744;37.578;2023-05-02T09:09:40;100608.38;;;22.01;25.63
42691;BME280;28306;55.744;37.578;2023-05-02T09:12:06;100610.88;;;22.03;25.30
42691;BME280;28306;55.744;37.578;2023-05-02T09:14:31;100610.06;;;22.02;25.41
42691;BME280;28306;55.744;37.578;2023-05-02T09:16:57;100602.75;;;22.03;25.44
42691;BME280;28306;55.744;37.578;2023-05-02T09:19:23;100595.22;;;22.05;25.33
42691;BME280;28306;55.744;37.578;2023-05-02T09:21:50;100612.53;;;22.04;25.56
42691;BME280;28306;55.744;37.578;2023-05-02T09:24:16;100608.97;;;22.03;25.29
42691;BME280;28306;55.744;37.578;2023-05-02T09:26:44;100610.78;;;22.09;25.52
42691;BME280;28306;55.744;37.578;2023-05-02T09:29:20;100599.50;;;22.12;25.16
42691;BME280;28306;55.744;37.578;2023-05-02T09:31:46;100606.38;;;22.15;25.19
42691;BME280;28306;55.744;37.578;2023-05-02T09:34:12;100602.81;;;22.14;25.19
42691;BME280;28306;55.744;37.578;2023-05-02T09:36:45;100595.75;;;22.13;25.37
42691;BME280;28306;55.744;37.578;2023-05-02T09:39:11;100590.34;;;22.13;25.17
42691;BME280;28306;55.744;37.578;2023-05-02T09:41:41;100591.97;;;22.14;25.22
42691;BME280;28306;55.744;37.578;2023-05-02T09:44:10;100590.34;;;22.13;25.15
42691;BME280;28306;55.744;37.578;2023-05-02T09:46:44;100585.75;;;22.14;25.24
42691;BME280;28306;55.744;37.578;2023-05-02T09:49:10;100585.75;;;22.14;25.31
42691;BME280;28306;55.744;37.578;2023-05-02T09:51:36;100579.28;;;22.15;25.11
42691;BME280;28306;55.744;37.578;2023-05-02T09:54:01;100571.16;;;22.15;25.38
42691;BME280;28306;55.744;37.578;2023-05-02T09:56:27;100582.81;;;22.16;25.26
42691;BME280;28306;55.744;37.578;2023-05-02T09:59:12;100580.09;;;22.16;25.35
42691;BME280;28306;55.744;37.578;2023-05-02T10:01:39;100578.44;;;22.14;25.29
42691;BME280;28306;55.744;37.578;2023-05-02T10:04:05;100570.06;;;22.16;25.29
42691;BME280;28306;55.744;37.578;2023-05-02T10:06:31;100566.31;;;22.17;25.32
42691;BME280;28306;55.744;37.578;2023-05-02T10:08:57;100572.56;;;22.18;25.18
42691;BME280;28306;55.744;37.578;2023-05-02T10:11:22;100566.91;;;22.19;25.34
42691;BME280;28306;55.744;37.578;2023-05-02T10:13:49;100560.69;;;22.19;25.15
42691;BME280;28306;55.744;37.578;2023-05-02T10:16:15;100564.19;;;22.19;25.22
42691;BME280;28306;55.744;37.578;2023-05-02T10:18:50;100562.34;;;22.20;25.09
42691;BME280;28306;55.744;37.578;2023-05-02T10:21:19;100565.88;;;22.20;25.06
42691;BME280;28306;55.744;37.578;2023-05-02T10:23:49;100563.97;;;22.21;25.10
42691;BME280;28306;55.744;37.578;2023-05-02T10:26:17;100562.94;;;22.22;25.19
42691;BME280;28306;55.744;37.578;2023-05-02T10:28:45;100558.56;;;22.21;25.22
42691;BME280;28306;55.744;37.578;2023-05-02T10:31:11;100558.34;;;22.22;25.12
42691;BME280;28306;55.744;37.578;2023-05-02T10:33:37;100549.38;;;22.22;24.96
42691;BME280;28306;55.744;37.578;2023-05-02T10:36:03;100545.63;;;22.23;25.08
42691;BME280;28306;55.744;37.578;2023-05-02T10:38:29;100544.78;;;22.22;25.00
42691;BME280;28306;55.744;37.578;2023-05-02T10:40:56;100548.13;;;22.24;25.08
42691;BME280;28306;55.744;37.578;2023-05-02T10:43:24;100552.47;;;22.25;25.07
42691;BME280;28306;55.744;37.578;2023-05-02T10:45:50;100542.47;;;22.26;25.13
42691;BME280;28306;55.744;37.578;2023-05-02T10:48:20;100544.34;;;22.25;25.09
42691;BME280;28306;55.744;37.578;2023-05-02T10:50:55;100554.72;;;22.28;24.96
42691;BME280;28306;55.744;37.578;2023-05-02T10:53:25;100545.78;;;22.28;25.10
42691;BME280;28306;55.744;37.578;2023-05-02T10:56:13;100547.44;;;22.29;25.16
42691;BME280;28306;55.744;37.578;2023-05-02T10:58:37;100540.97;;;22.30;24.93
42691;BME280;28306;55.744;37.578;2023-05-02T11:04:00;100535.31;;;22.31;25.04
42691;BME280;28306;55.744;37.578;2023-05-02T11:06:28;100534.06;;;22.34;25.12
42691;BME280;28306;55.744;37.578;2023-05-02T11:11:45;100520.78;;;22.26;25.21
42691;BME280;28306;55.744;37.578;2023-05-02T11:22:29;100519.72;;;22.27;25.11
42691;BME280;28306;55.744;37.578;2023-05-02T11:24:52;100514.91;;;22.29;25.14
42691;BME280;28306;55.744;37.578;2023-05-02T11:30:02;100514.50;;;22.32;25.04
42691;BME280;28306;55.744;37.578;2023-05-02T11:35:21;100514.03;;;22.35;25.12
42691;BME280;28306;55.744;37.578;2023-05-02T11:37:54;100499.41;;;22.36;24.88
42691;BME280;28306;55.744;37.578;2023-05-02T11:40:20;100494.59;;;22.38;24.93
42691;BME280;28306;55.744;37.578;2023-05-02T11:42:46;100488.91;;;22.40;25.01
42691;BME280;28306;55.744;37.578;2023-05-02T11:45:11;100496.81;;;22.41;24.78
42691;BME280;28306;55.744;37.578;2023-05-02T11:47:37;100486.59;;;22.43;24.86
42691;BME280;28306;55.744;37.578;2023-05-02T11:50:06;100486.38;;;22.45;25.09
42691;BME280;28306;55.744;37.578;2023-05-02T11:52:39;100483.44;;;22.46;24.93
42691;BME280;28306;55.744;37.578;2023-05-02T11:55:05;100474.22;;;22.47;24.89
42691;BME280;28306;55.744;37.578;2023-05-02T11:57:34;100471.06;;;22.50;24.75
42691;BME280;28306;55.744;37.578;2023-05-02T11:59:59;100477.91;;;22.53;24.69
42691;BME280;28306;55.744;37.578;2023-05-02T12:02:38;100474.53;;;22.58;24.83
42691;BME280;28306;55.744;37.578;2023-05-02T12:05:04;100468.19;;;22.64;24.78
42691;BME280;28306;55.744;37.578;2023-05-02T12:10:08;100463.81;;;24.23;23.63
42691;BME280;28306;55.744;37.578;2023-05-02T12:12:34;100468.09;;;25.40;22.44
42691;BME280;28306;55.744;37.578;2023-05-02T12:15:03;100464.72;;;26.33;21.80
42691;BME280;28306;55.744;37.578;2023-05-02T12:17:29;100451.91;;;27.15;21.31
42691;BME280;28306;55.744;37.578;2023-05-02T12:19:55;100451.81;;;27.85;20.84
42691;BME280;28306;55.744;37.578;2023-05-02T12:22:22;100457.81;;;28.40;20.37
42691;BME280;28306;55.744;37.578;2023-05-02T12:24:47;100450.25;;;28.83;20.09
42691;BME280;28306;55.744;37.578;2023-05-02T12:27:14;100448.06;;;29.06;19.95
42691;BME280;28306;55.744;37.578;2023-05-02T12:29:40;100439.03;;;29.26;19.91
42691;BME280;28306;55.744;37.578;2023-05-02T12:32:05;100442.53;;;29.57;19.78
42691;BME280;28306;55.744;37.578;2023-05-02T12:34:32;100442.19;;;29.90;19.77
42691;BME280;28306;55.744;37.578;2023-05-02T12:36:57;100443.13;;;30.25;19.24
42691;BME280;28306;55.744;37.578;2023-05-02T12:42:07;100441.69;;;30.82;19.21
42691;BME280;28306;55.744;37.578;2023-05-02T12:44:36;100438.56;;;30.99;18.84
42691;BME280;28306;55.744;37.578;2023-05-02T12:47:03;100431.06;;;31.10;18.73
42691;BME280;28306;55.744;37.578;2023-05-02T12:49:28;100434.81;;;31.19;18.76
42691;BME280;28306;55.744;37.578;2023-05-02T12:51:54;100435.00;;;31.28;18.77
42691;BME280;28306;55.744;37.578;2023-05-02T12:54:22;100433.25;;;31.37;18.93
42691;BME280;28306;55.744;37.578;2023-05-02T12:56:48;100430.94;;;31.50;18.85
42691;BME280;28306;55.744;37.578;2023-05-02T12:59:26;100428.63;;;31.62;18.76
42691;BME280;28306;55.744;37.578;2023-05-02T13:01:51;100426.28;;;31.74;18.55
42691;BME280;28306;55.744;37.578;2023-05-02T13:04:17;100427.19;;;31.89;18.58
42691;BME280;28306;55.744;37.578;2023-05-02T13:06:42;100424.78;;;32.06;18.42
42691;BME280;28306;55.744;37.578;2023-05-02T13:09:08;100422.28;;;32.29;18.43
42691;BME280;28306;55.744;37.578;2023-05-02T13:11:33;100417.31;;;32.50;17.97
42691;BME280;28306;55.744;37.578;2023-05-02T13:13:59;100418.94;;;32.70;18.02
42691;BME280;28306;55.744;37.578;2023-05-02T13:16:27;100419.63;;;32.95;17.74
42691;BME280;28306;55.744;37.578;2023-05-02T13:18:54;100421.56;;;33.27;17.43
42691;BME280;28306;55.744;37.578;2023-05-02T13:21:19;100412.50;;;33.68;17.06
42691;BME280;28306;55.744;37.578;2023-05-02T13:23:48;100420.75;;;34.10;16.91
42691;BME280;28306;55.744;37.578;2023-05-02T13:26:14;100411.06;;;34.49;16.61
42691;BME280;28306;55.744;37.578;2023-05-02T13:28:40;100419.13;;;34.82;16.28